Disclaimer

Please do not use the information listed here in-flight or in-navigation, as they are not provided to us by the airports but are provided by volunteers, so they might be outdated.

Search


Regions


Airport information page

Radio informations:
FORT DE FRANCE T - 118.5 MHz
Ground (GND) - 121.9 MHz
Automatic Terminal Information Service (ATIS) - 127.85 MHz
FORT DE FRANCE A - 121.0 MHz

Airport informations:
Latitude: 14° 35' 27.72" N
Longitude: 061° 00' 11.43" W
Elevation: 16 feet - 5 meters
Operating hours: N/A
Operating agency: Civil government, landing fees and diplomatic clearance may be required
Timezone: UTC-4
Fuel: Jet A1, without icing nhibitor.

100/130 MIL Spec, low lead, aviation gasoline (BLUE)

Runway information:
09/27 - 10826 x 147 feet< - >3300 x 45 meters

Recent METARs:
TFFF 131430Z AUTO 11014KT 9999 FEW024/// BKN052/// BKN066/// ///CB 29/25 Q1015 TEMPO VRB15G25KT 1000 TSRA BKN010CB
TFFF 131500Z AUTO 11011KT 9999 SCT021/// BKN029/// BKN037/// ///CB 28/25 Q1015 TEMPO VRB15G25KT 1000 TSRA BKN010CB
TFFF 131530Z AUTO 07014KT 040V100 7000 1100 R10/1300D RA FEW008/// SCT015/// BKN024/// ///CB 25/23 Q1015 TEMPO VRB15G25KT 1000 TSRA BKN010CB

Airport on the map: